Time;durP1;ratioP1;P1;durP2;ratioP2;P2;SDS_P1;SDS_P2;PMS_P1;PMS_P2;Temp;Humidity;BMP_temperature;BMP_pressure;BME280_temperature;BME280_humidity;BME280_pressure;Samples;Min_cycle;Max_cycle;Signal;HPM_P1;HPM_P2
2022/11/27 00:01:20;;;;;;;22.35;9.05;;;;;;;8.24;86.27;101943.84;5032650;28;20041;-60
2022/11/27 00:03:48;;;;;;;16.33;6.68;;;;;;;8.09;86.09;101939.06;5050318;28;20045;-60
2022/11/27 00:06:18;;;;;;;17.60;6.53;;;;;;;7.94;86.69;101939.00;5038802;28;20053;-61
2022/11/27 00:08:46;;;;;;;23.27;8.88;;;;;;;7.95;87.58;101946.13;5025133;28;20053;-61
2022/11/27 00:11:16;;;;;;;15.75;6.70;;;;;;;7.96;87.33;101929.44;5045309;28;20049;-62
2022/11/27 00:13:43;;;;;;;;;;;;;;;7.91;87.16;101909.38;5021087;28;20057;-61
2022/11/27 00:16:12;;;;;;;14.73;7.32;;;;;;;8.00;87.05;101916.00;5039572;28;19921;-61
2022/11/27 00:18:40;;;;;;;19.00;9.60;;;;;;;8.19;86.90;101921.84;5024178;28;20499;-60
2022/11/27 00:21:10;;;;;;;18.90;8.60;;;;;;;8.18;85.94;101907.28;5035661;28;20041;-63
2022/11/27 00:23:37;;;;;;;18.17;8.30;;;;;;;8.25;86.03;101918.88;5025916;28;20056;-61
2022/11/27 00:26:05;;;;;;;18.75;7.60;;;;;;;8.19;85.85;101914.44;5038964;28;20049;-62
2022/11/27 00:28:33;;;;;;;15.02;6.70;;;;;;;8.27;85.94;101899.38;5046447;28;20048;-61
2022/11/27 00:31:05;;;;;;;19.73;7.10;;;;;;;8.55;85.12;101898.91;5042151;28;20056;-61
2022/11/27 00:33:33;;;;;;;18.45;7.93;;;;;;;8.51;84.34;101897.81;5052301;28;20059;-60
2022/11/27 00:36:04;;;;;;;20.38;7.22;;;;;;;8.28;85.07;101890.88;5036998;28;20091;-61
2022/11/27 00:38:33;;;;;;;19.77;7.60;;;;;;;8.31;85.34;101878.53;5038620;28;20417;-60
2022/11/27 00:41:16;;;;;;;15.35;6.88;;;;;;;7.87;86.61;101875.34;5039131;28;20052;-60
2022/11/27 00:43:44;;;;;;;19.17;8.80;;;;;;;8.12;86.52;101872.69;5048154;28;20049;-60
2022/11/27 00:46:13;;;;;;;21.55;10.55;;;;;;;8.21;86.69;101871.06;5039017;28;20061;-60
2022/11/27 00:48:41;;;;;;;25.83;8.15;;;;;;;8.22;86.31;101869.97;5042033;28;20053;-60
2022/11/27 00:51:12;;;;;;;19.45;7.75;;;;;;;8.38;85.99;101868.13;5042198;28;20068;-60
2022/11/27 00:53:40;;;;;;;17.02;7.13;;;;;;;8.33;85.18;101874.44;5042765;28;20053;-65
2022/11/27 00:56:07;;;;;;;19.00;7.07;;;;;;;8.28;85.58;101868.91;5025829;28;20059;-62
2022/11/27 00:58:35;;;;;;;18.10;6.55;;;;;;;8.09;86.11;101875.16;5014896;28;20052;-62
2022/11/27 01:01:04;;;;;;;26.52;8.73;;;;;;;8.04;86.71;101877.88;5041389;28;20048;-62
2022/11/27 01:03:33;;;;;;;17.25;7.75;;;;;;;8.36;86.15;101873.06;5046463;28;20060;-60
2022/11/27 01:06:05;;;;;;;18.77;7.22;;;;;;;8.60;85.33;101869.56;5023367;28;20053;-59
2022/11/27 01:08:33;;;;;;;20.60;7.55;;;;;;;8.52;84.22;101858.28;5027773;28;20056;-61
2022/11/27 01:11:00;;;;;;;28.70;11.32;;;;;;;8.48;84.41;101848.94;5042472;28;20683;-63
2022/11/27 01:13:31;;;;;;;15.95;7.03;;;;;;;8.32;84.47;101842.59;5011839;28;20041;-60
2022/11/27 01:16:05;;;;;;;16.80;7.07;;;;;;;8.29;84.63;101851.38;5025664;28;20045;-61
2022/11/27 01:18:33;;;;;;;17.65;7.35;;;;;;;8.33;84.80;101852.50;5035697;28;20057;-61
2022/11/27 01:21:01;;;;;;;16.92;6.93;;;;;;;8.30;84.99;101858.50;5017596;28;20046;-61
2022/11/27 01:23:29;;;;;;;14.60;6.88;;;;;;;8.33;84.92;101854.41;5012821;28;20504;-62
2022/11/27 01:26:00;;;;;;;17.45;7.18;;;;;;;8.39;84.36;101851.38;5039891;28;20045;-60
2022/11/27 01:28:28;;;;;;;15.82;7.00;;;;;;;8.05;85.37;101852.91;5038763;28;20037;-59
2022/11/27 01:30:55;;;;;;;15.75;6.78;;;;;;;8.10;85.85;101850.19;5042270;28;20037;-61
2022/11/27 01:33:23;;;;;;;14.57;7.60;;;;;;;8.24;85.68;101839.56;5050196;28;20046;-61
2022/11/27 01:35:55;;;;;;;17.73;7.35;;;;;;;8.25;84.56;101839.28;5028771;28;20693;-60
2022/11/27 01:38:23;;;;;;;20.88;7.13;;;;;;;8.10;85.18;101835.63;5053846;28;20056;-60
2022/11/27 01:41:02;;;;;;;17.30;7.00;;;;;;;7.82;86.35;101831.44;5032729;28;20061;-61
2022/11/27 01:43:48;;;;;;;16.92;6.80;;;;;;;7.71;87.93;101835.22;5051175;28;20480;-60
2022/11/27 01:46:23;;;;;;;17.60;7.85;;;;;;;8.02;86.75;101824.09;5047411;28;20447;-60
2022/11/27 01:49:04;;;;;;;15.65;6.75;;;;;;;8.23;85.71;101833.19;5045024;28;20680;-60
2022/11/27 01:51:31;;;;;;;17.98;7.00;;;;;;;8.57;84.52;101842.66;5018097;28;20060;-60
2022/11/27 01:53:59;;;;;;;17.33;7.18;;;;;;;8.25;83.88;101827.47;5008595;28;20065;-60
2022/11/27 01:56:27;;;;;;;15.00;6.78;;;;;;;7.99;85.17;101827.38;5050859;28;20057;-61
2022/11/27 01:58:56;;;;;;;16.95;7.65;;;;;;;8.29;84.89;101828.59;5027416;28;20045;-60
2022/11/27 02:01:25;;;;;;;20.80;8.05;;;;;;;8.43;84.44;101810.50;5019600;28;20065;-61
2022/11/27 02:03:54;;;;;;;18.98;8.07;;;;;;;8.50;83.09;101808.31;5047709;28;20045;-61
2022/11/27 02:06:21;;;;;;;20.75;7.25;;;;;;;8.14;84.24;101807.41;5009739;28;20053;-61
2022/11/27 02:08:48;;;;;;;13.88;6.57;;;;;;;8.09;84.86;101814.78;5046813;28;20057;-61
2022/11/27 02:11:40;;;;;;;20.20;7.93;;;;;;;7.96;85.43;101813.38;5052083;28;20060;-61
2022/11/27 02:14:10;;;;;;;16.98;6.65;;;;;;;7.89;85.98;101819.13;5040108;28;20048;-61
2022/11/27 02:16:56;;;;;;;15.77;6.80;;;;;;;8.06;85.65;101813.41;5033226;28;20049;-60
2022/11/27 02:19:49;;;;;;;16.45;6.80;;;;;;;8.21;84.73;101815.38;5042339;28;20049;-60
2022/11/27 02:22:25;;;;;;;16.98;6.70;;;;;;;8.03;84.82;101813.94;5040539;28;20048;-62
2022/11/27 02:25:35;;;;;;;16.13;6.68;;;;;;;8.12;85.22;101808.75;5044300;28;20049;-61
2022/11/27 02:28:33;;;;;;;16.33;6.28;;;;;;;8.17;84.90;101812.34;5044523;28;20048;-61
2022/11/27 02:31:15;;;;;;;20.02;6.15;;;;;;;8.12;84.74;101809.59;5024435;28;20053;-60
2022/11/27 02:33:46;;;;;;;17.83;6.95;;;;;;;8.06;84.94;101807.06;5027877;28;20156;-60
2022/11/27 02:36:14;;;;;;;;;;;;;;;8.19;85.07;101806.56;5048239;28;20045;-60
2022/11/27 02:38:46;;;;;;;16.73;6.55;;;;;;;8.22;84.42;101801.38;5023383;28;20406;-60
2022/11/27 02:41:23;;;;;;;15.45;6.53;;;;;;;8.26;84.48;101796.19;5040694;28;20052;-60
2022/11/27 02:43:51;;;;;;;13.95;6.53;;;;;;;8.29;83.71;101801.13;5047970;28;20487;-60
2022/11/27 02:46:19;;;;;;;18.50;6.47;;;;;;;8.32;84.22;101801.41;5044238;28;20045;-60
2022/11/27 02:48:49;;;;;;;15.18;6.35;;;;;;;8.17;84.26;101793.13;5044841;28;20456;-59
2022/11/27 02:51:18;;;;;;;;;;;;;;;8.19;84.70;101788.19;5030131;28;20147;-61
2022/11/27 02:53:50;;;;;;;13.43;6.75;;;;;;;7.89;85.36;101779.88;5003278;28;19931;-61
2022/11/27 02:56:20;;;;;;;18.08;6.63;;;;;;;7.97;86.08;101779.34;5046885;28;20057;-60
2022/11/27 02:58:47;;;;;;;;;;;;;;;8.09;85.41;101768.94;5027009;28;20049;-61
2022/11/27 03:01:17;;;;;;;13.55;6.38;;;;;;;8.30;84.80;101767.91;5035133;28;19920;-61
2022/11/27 03:03:47;;;;;;;22.25;7.00;;;;;;;8.08;84.95;101761.81;5038232;28;20404;-61
2022/11/27 03:06:17;;;;;;;;;;;;;;;8.07;85.17;101757.44;5056612;28;20555;-60
2022/11/27 03:08:58;;;;;;;17.25;6.45;;;;;;;8.09;85.59;101757.97;5028776;28;19928;-60
2022/11/27 03:11:29;;;;;;;17.23;6.68;;;;;;;8.09;85.01;101757.16;5034924;28;20045;-60
2022/11/27 03:13:59;;;;;;;15.05;6.90;;;;;;;7.95;85.43;101765.91;5033641;28;20407;-60
2022/11/27 03:16:40;;;;;;;19.92;7.00;;;;;;;7.98;86.26;101756.31;5053411;28;20057;-61
2022/11/27 03:19:07;;;;;;;;;;;;;;;8.09;85.58;101748.94;5038275;28;20049;-61
2022/11/27 03:21:38;;;;;;;13.23;5.80;;;;;;;7.96;85.82;101747.53;5026439;28;20886;-61
2022/11/27 03:24:07;;;;;;;20.88;6.43;;;;;;;7.89;85.78;101739.56;5050626;28;20049;-61
2022/11/27 03:26:34;;;;;;;13.80;6.22;;;;;;;7.96;85.85;101729.16;5027059;28;20423;-61
2022/11/27 03:29:04;;;;;;;17.13;6.65;;;;;;;7.81;86.44;101731.84;5015620;28;20635;-61
2022/11/27 03:31:32;;;;;;;13.48;6.43;;;;;;;7.72;87.03;101727.97;5050904;28;20052;-61
2022/11/27 03:33:59;;;;;;;16.50;6.95;;;;;;;7.98;86.96;101731.63;5030971;28;20056;-60
2022/11/27 03:36:27;;;;;;;16.88;6.82;;;;;;;8.02;86.36;101720.94;5022093;28;20053;-60
2022/11/27 03:38:54;;;;;;;15.60;6.35;;;;;;;7.89;86.42;101719.53;5045991;28;20049;-60
2022/11/27 03:41:38;;;;;;;14.98;6.78;;;;;;;7.97;86.85;101706.09;5030288;28;20057;-61
2022/11/27 03:44:14;;;;;;;15.48;6.93;;;;;;;7.90;86.23;101708.28;5027625;28;20049;-59
2022/11/27 03:47:01;;;;;;;17.80;6.65;;;;;;;7.92;86.53;101700.63;5047434;28;20060;-60
2022/11/27 03:49:33;;;;;;;17.10;6.35;;;;;;;8.00;85.86;101699.28;5045648;28;20049;-60
2022/11/27 03:52:23;;;;;;;14.98;6.22;;;;;;;8.08;86.22;101700.63;5029829;28;20060;-61
2022/11/27 03:54:50;;;;;;;;;;;;;;;8.07;85.51;101690.75;5029430;28;20054;-61
2022/11/27 03:57:28;;;;;;;17.15;5.90;;;;;;;8.13;85.92;101693.22;5043374;28;19939;-62
2022/11/27 03:59:57;;;;;;;15.05;6.55;;;;;;;8.13;85.88;101695.97;5036830;28;20037;-60
2022/11/27 04:02:32;;;;;;;22.55;6.75;;;;;;;8.22;85.26;101683.34;5022242;28;20073;-61
2022/11/27 04:05:00;;;;;;;15.20;6.72;;;;;;;8.09;85.55;101689.38;5026193;28;20056;-60
2022/11/27 04:07:27;;;;;;;12.75;6.38;;;;;;;8.20;85.59;101702.00;5056044;28;20049;-61
2022/11/27 04:09:54;;;;;;;16.20;6.65;;;;;;;8.30;84.74;101691.06;5023160;28;20054;-60
2022/11/27 04:12:22;;;;;;;14.20;6.65;;;;;;;8.31;84.25;101698.22;5048226;28;20053;-60
2022/11/27 04:14:49;;;;;;;17.17;6.75;;;;;;;8.22;84.61;101694.34;5026990;28;20045;-60
2022/11/27 04:17:16;;;;;;;18.60;7.03;;;;;;;8.05;85.60;101698.44;5053706;28;20057;-63
2022/11/27 04:19:43;;;;;;;16.27;6.65;;;;;;;8.18;85.41;101700.63;5049040;28;20514;-61
2022/11/27 04:22:11;;;;;;;13.73;6.28;;;;;;;8.23;85.19;101695.16;5047734;28;20056;-60
2022/11/27 04:24:38;;;;;;;18.15;6.60;;;;;;;8.15;84.79;101696.53;5047827;28;20512;-60
2022/11/27 04:27:06;;;;;;;17.48;6.60;;;;;;;8.29;85.34;101685.84;5044489;28;20052;-61
2022/11/27 04:29:35;;;;;;;17.20;6.63;;;;;;;8.21;84.76;101681.69;5043299;28;20144;-60
2022/11/27 04:32:03;;;;;;;15.40;6.97;;;;;;;8.26;85.55;101683.66;5045083;28;20057;-61
2022/11/27 04:34:31;;;;;;;16.83;6.50;;;;;;;8.28;84.86;101676.78;5030555;28;20056;-60
2022/11/27 04:36:59;;;;;;;13.98;6.25;;;;;;;8.08;85.48;101670.44;5046797;28;20049;-61
2022/11/27 04:39:26;;;;;;;17.30;7.15;;;;;;;8.05;86.47;101673.75;5041785;28;20045;-61
2022/11/27 04:41:53;;;;;;;18.92;6.93;;;;;;;7.92;87.17;101667.69;5040568;28;20053;-61
2022/11/27 04:44:21;;;;;;;15.88;6.80;;;;;;;8.14;87.11;101658.38;5023625;28;20053;-60
2022/11/27 04:46:49;;;;;;;15.38;6.35;;;;;;;8.26;86.35;101653.47;5048109;28;20053;-61
2022/11/27 04:49:16;;;;;;;13.88;6.20;;;;;;;8.33;85.71;101656.75;5041896;28;20052;-60
2022/11/27 04:51:44;;;;;;;13.80;6.60;;;;;;;8.20;85.84;101644.38;5032674;28;20049;-60
2022/11/27 04:54:11;;;;;;;18.30;7.10;;;;;;;8.22;85.86;101638.63;5043682;28;20046;-61
2022/11/27 04:56:39;;;;;;;16.13;6.85;;;;;;;8.22;85.69;101650.44;5019765;28;20052;-60
2022/11/27 04:59:06;;;;;;;15.98;7.05;;;;;;;8.28;85.73;101634.81;5017313;28;20056;-61
2022/11/27 05:01:33;;;;;;;13.48;6.15;;;;;;;8.21;85.80;101631.50;5024508;28;20049;-63
2022/11/27 05:04:01;;;;;;;17.15;6.50;;;;;;;7.88;86.63;101627.34;5022976;28;20061;-60
2022/11/27 05:06:28;;;;;;;18.75;7.05;;;;;;;8.04;87.34;101628.22;5043489;28;20463;-60
2022/11/27 05:08:58;;;;;;;16.20;6.70;;;;;;;8.09;86.93;101611.75;5024921;28;20053;-60
2022/11/27 05:11:27;;;;;;;17.17;7.30;;;;;;;7.97;87.37;101606.53;5031552;28;20827;-61
2022/11/27 05:16:50;;;;;;;13.30;6.78;;;;;;;8.07;87.66;101612.03;5035784;28;20049;-62
2022/11/27 05:19:20;;;;;;;12.65;6.65;;;;;;;8.16;87.33;101604.06;5022687;28;20053;-63
2022/11/27 05:21:48;;;;;;;17.17;6.65;;;;;;;8.17;86.24;101598.28;5041669;28;20059;-63
2022/11/27 05:24:18;;;;;;;17.23;6.60;;;;;;;8.38;85.77;101610.09;5041061;28;20064;-63
2022/11/27 05:26:46;;;;;;;13.10;6.53;;;;;;;8.16;85.67;101613.09;5043907;28;20049;-62
2022/11/27 05:29:14;;;;;;;12.90;7.32;;;;;;;8.07;86.67;101613.94;5009008;28;20065;-62
2022/11/27 05:31:41;;;;;;;17.85;6.50;;;;;;;7.90;87.13;101605.97;5025315;28;20374;-63
2022/11/27 05:34:09;;;;;;;13.18;6.72;;;;;;;8.28;87.24;101610.13;5049795;28;20051;-63
2022/11/27 05:36:36;;;;;;;19.63;7.80;;;;;;;8.22;86.05;101617.50;5038090;28;20053;-63
2022/11/27 05:39:05;;;;;;;13.73;6.68;;;;;;;8.27;86.04;101613.94;5026005;28;20059;-63
2022/11/27 05:41:33;;;;;;;14.75;6.15;;;;;;;8.27;85.58;101602.97;5040829;28;20052;-63
2022/11/27 05:44:01;;;;;;;12.45;6.80;;;;;;;8.28;85.60;101591.69;5055003;28;20052;-63
2022/11/27 05:46:28;;;;;;;15.68;6.53;;;;;;;8.34;85.79;101592.53;5049857;28;20045;-63
2022/11/27 05:48:56;;;;;;;13.65;6.68;;;;;;;8.46;85.07;101595.78;5027670;28;20060;-61
2022/11/27 05:51:23;;;;;;;15.98;6.32;;;;;;;8.25;85.29;101588.69;5050638;28;20049;-65
2022/11/27 05:53:51;;;;;;;14.70;6.60;;;;;;;8.04;87.19;101595.28;5029473;28;20045;-63
2022/11/27 05:56:18;;;;;;;13.80;7.38;;;;;;;8.05;87.75;101608.72;5052615;28;20442;-65
2022/11/27 05:58:46;;;;;;;18.77;7.45;;;;;;;8.12;87.56;101598.31;5013624;28;20087;-61
2022/11/27 06:01:14;;;;;;;18.38;7.35;;;;;;;8.20;87.55;101596.91;5036882;28;20051;-60
2022/11/27 06:03:42;;;;;;;14.45;7.28;;;;;;;8.19;86.94;101596.09;5045523;28;20041;-60
2022/11/27 06:06:13;;;;;;;15.57;7.05;;;;;;;8.31;86.74;101593.09;5038684;28;20060;-59
2022/11/27 06:08:40;;;;;;;19.20;6.85;;;;;;;8.38;86.63;101591.72;5034046;28;20064;-61
2022/11/27 06:11:10;;;;;;;17.42;6.90;;;;;;;8.36;86.63;101590.31;5036204;28;20049;-60
2022/11/27 06:13:37;;;;;;;14.85;6.82;;;;;;;8.39;85.63;101595.25;5024801;28;20053;-61
2022/11/27 06:16:12;;;;;;;18.23;7.03;;;;;;;8.12;87.08;101591.97;5025784;28;20045;-60
2022/11/27 06:18:39;;;;;;;18.95;6.88;;;;;;;8.08;87.69;101585.38;5022504;28;20057;-60
2022/11/27 06:21:09;;;;;;;15.30;7.72;;;;;;;8.01;87.86;101585.69;5045766;28;20052;-60
2022/11/27 06:23:36;;;;;;;19.02;6.53;;;;;;;8.25;87.77;101588.69;5021843;28;20046;-60
2022/11/27 06:26:21;;;;;;;15.60;6.80;;;;;;;8.37;86.88;101589.25;5042682;28;20037;-59
2022/11/27 06:28:49;;;;;;;17.92;7.35;;;;;;;8.23;87.58;101586.19;5051547;28;20057;-61
2022/11/27 06:31:18;;;;;;;13.57;6.57;;;;;;;8.28;87.07;101575.25;5043177;28;20049;-61
2022/11/27 06:33:47;;;;;;;14.70;6.40;;;;;;;8.12;87.77;101568.13;5041650;28;20057;-60
2022/11/27 06:36:15;;;;;;;15.65;7.10;;;;;;;8.30;87.24;101564.00;5040342;28;20411;-59
2022/11/27 06:38:43;;;;;;;12.27;6.53;;;;;;;8.36;86.44;101571.94;5036660;28;20053;-60
2022/11/27 06:41:21;;;;;;;15.88;6.38;;;;;;;8.38;86.41;101566.19;5045823;28;20053;-60
2022/11/27 06:43:48;;;;;;;13.35;6.47;;;;;;;8.35;86.37;101555.75;5016977;28;20045;-60
2022/11/27 06:46:17;;;;;;;18.65;6.68;;;;;;;8.36;86.53;101549.97;5039184;28;20048;-60
2022/11/27 06:48:46;;;;;;;14.70;6.70;;;;;;;8.33;86.53;101552.47;5045326;28;20057;-61
2022/11/27 06:51:17;;;;;;;18.60;7.03;;;;;;;8.29;86.56;101548.63;5033642;28;20053;-61
2022/11/27 06:53:44;;;;;;;16.95;7.00;;;;;;;8.43;86.26;101547.78;5043472;28;20061;-61
2022/11/27 06:56:14;;;;;;;15.27;6.97;;;;;;;8.37;86.47;101545.31;5049652;28;20056;-60
2022/11/27 06:58:41;;;;;;;16.85;6.68;;;;;;;8.13;86.64;101547.81;5043814;28;20064;-60
2022/11/27 07:01:14;;;;;;;14.38;6.57;;;;;;;8.19;87.23;101546.72;5021783;28;20507;-61
2022/11/27 07:03:42;;;;;;;14.95;6.57;;;;;;;8.15;87.47;101542.88;5035598;28;20053;-61
2022/11/27 07:06:13;;;;;;;17.30;6.75;;;;;;;8.18;87.33;101531.31;5040425;28;20349;-61
2022/11/27 07:08:41;;;;;;;15.98;6.55;;;;;;;8.19;87.07;101543.97;5043063;28;20060;-62
2022/11/27 07:11:22;;;;;;;16.80;6.90;;;;;;;8.09;87.89;101541.22;5026300;28;20051;-62
2022/11/27 07:13:50;;;;;;;15.68;7.10;;;;;;;8.14;88.09;101526.69;5048260;28;20415;-62
2022/11/27 07:16:18;;;;;;;15.20;7.03;;;;;;;8.16;87.93;101519.78;5044936;28;20057;-60
2022/11/27 07:18:48;;;;;;;15.95;6.93;;;;;;;8.29;87.38;101526.66;5021424;28;20048;-62
2022/11/27 07:21:15;;;;;;;16.70;7.45;;;;;;;8.21;87.67;101521.72;5048036;28;20048;-62
2022/11/27 07:23:43;;;;;;;15.73;6.80;;;;;;;8.02;87.88;101530.53;5040862;28;20053;-63
2022/11/27 07:26:16;;;;;;;13.88;6.80;;;;;;;8.05;88.68;101520.94;5041639;28;20071;-61
2022/11/27 07:28:43;;;;;;;14.10;7.13;;;;;;;8.14;88.45;101535.75;5022672;28;20045;-63
2022/11/27 07:31:13;;;;;;;15.63;6.78;;;;;;;8.18;88.31;101530.50;5032279;28;20060;-63
2022/11/27 07:33:40;;;;;;;19.92;7.50;;;;;;;8.29;87.73;101532.97;5046931;28;20053;-63
2022/11/27 07:36:13;;;;;;;16.48;7.20;;;;;;;8.40;87.26;101533.78;5045496;28;20041;-63
2022/11/27 07:38:40;;;;;;;18.55;7.50;;;;;;;8.26;87.82;101543.69;5044487;28;20144;-63
2022/11/27 07:41:08;;;;;;;13.55;6.82;;;;;;;8.32;87.51;101546.16;5046132;28;20049;-63
2022/11/27 07:43:36;;;;;;;19.48;7.88;;;;;;;8.13;88.25;101539.56;5039733;28;20045;-63
2022/11/27 07:46:09;;;;;;;16.27;7.22;;;;;;;8.11;88.81;101525.31;5047237;28;20147;-62
2022/11/27 07:48:37;;;;;;;17.00;7.10;;;;;;;8.16;89.57;101532.72;5047885;28;20056;-63
2022/11/27 07:51:05;;;;;;;20.70;8.20;;;;;;;8.22;89.25;101532.41;5052216;28;20068;-62
2022/11/27 07:53:35;;;;;;;17.40;8.15;;;;;;;8.44;89.13;101540.38;5053578;28;20057;-62
2022/11/27 07:56:03;;;;;;;;;;;;;;;8.45;88.57;101540.09;5050208;28;20041;-62
2022/11/27 07:58:30;;;;;;;16.65;7.50;;;;;;;8.23;89.10;101536.78;5037310;28;20352;-63
2022/11/27 08:00:58;;;;;;;16.00;7.38;;;;;;;8.37;89.59;101537.09;5027541;28;20053;-63
2022/11/27 08:03:25;;;;;;;17.27;7.35;;;;;;;8.34;89.57;101541.19;5007741;28;20420;-64
2022/11/27 08:05:52;;;;;;;18.65;8.90;;;;;;;8.46;89.18;101540.88;5025998;28;20045;-64
2022/11/27 08:08:20;;;;;;;17.42;7.95;;;;;;;8.56;89.02;101546.38;5052472;28;20065;-63
2022/11/27 08:10:47;;;;;;;15.93;7.72;;;;;;;8.51;88.72;101538.94;5046006;28;20052;-63
2022/11/27 08:13:14;;;;;;;17.77;8.35;;;;;;;8.66;88.50;101540.81;5036080;28;20160;-62
2022/11/27 08:15:41;;;;;;;17.30;8.13;;;;;;;8.56;88.69;101524.41;5037721;28;20053;-63
2022/11/27 08:18:09;;;;;;;19.23;8.82;;;;;;;8.63;88.41;101522.97;5051374;28;20069;-63
2022/11/27 08:20:36;;;;;;;21.42;8.55;;;;;;;8.67;88.18;101525.97;5041497;28;20064;-63
2022/11/27 08:23:04;;;;;;;14.85;8.27;;;;;;;8.49;88.87;101526.63;5053984;28;20063;-63
2022/11/27 08:25:31;;;;;;;20.45;8.10;;;;;;;8.44;89.34;101524.69;5039663;28;20045;-63
2022/11/27 08:27:59;;;;;;;19.50;8.45;;;;;;;8.45;89.67;101515.38;5044275;28;20431;-62
2022/11/27 08:30:26;;;;;;;20.13;8.02;;;;;;;8.44;89.71;101501.94;5031000;28;20049;-64
2022/11/27 08:32:53;;;;;;;18.02;7.35;;;;;;;8.55;89.74;101509.00;5055001;28;20056;-63
2022/11/27 08:35:21;;;;;;;18.50;8.02;;;;;;;8.79;88.93;101502.59;5036898;28;20503;-62
2022/11/27 08:37:49;;;;;;;15.10;7.50;;;;;;;8.47;88.91;101502.16;5009515;28;20045;-62
2022/11/27 08:40:16;;;;;;;17.67;8.13;;;;;;;8.65;89.23;101501.56;5019079;28;20037;-62
2022/11/27 08:42:43;;;;;;;21.35;8.88;;;;;;;8.70;89.17;101501.53;5047556;28;20037;-61
2022/11/27 08:45:10;;;;;;;18.55;8.18;;;;;;;8.59;89.05;101488.13;5025129;28;20044;-63
2022/11/27 08:47:38;;;;;;;17.27;8.40;;;;;;;8.48;89.43;101489.25;5053517;28;20044;-64
2022/11/27 08:50:06;;;;;;;23.60;8.25;;;;;;;8.63;89.79;101489.22;5039395;28;20053;-63
2022/11/27 08:52:33;;;;;;;23.00;9.38;;;;;;;8.47;89.95;101482.16;5025509;28;20056;-64
2022/11/27 08:55:01;;;;;;;17.23;8.18;;;;;;;8.68;89.82;101470.78;5017976;28;20061;-63
2022/11/27 08:57:28;;;;;;;17.35;7.95;;;;;;;9.66;92.82;101462.41;5038654;28;20057;-64
2022/11/27 08:59:55;;;;;;;17.52;7.47;;;;;;;9.32;87.01;101453.31;5042425;28;20053;-67
2022/11/27 09:02:23;;;;;;;16.60;7.40;;;;;;;9.54;86.21;101454.50;5048752;28;20052;-65
2022/11/27 09:04:50;;;;;;;15.55;6.85;;;;;;;9.36;85.65;101451.66;5024680;28;20049;-67
2022/11/27 09:07:17;;;;;;;18.88;7.85;;;;;;;9.33;85.60;101446.75;5008918;28;20056;-68
2022/11/27 09:09:45;;;;;;;20.25;7.97;;;;;;;9.50;85.19;101438.88;5027267;28;20054;-68
2022/11/27 09:12:12;;;;;;;17.23;6.82;;;;;;;9.53;84.69;101433.63;5019243;28;20076;-66
2022/11/27 09:14:42;;;;;;;15.67;7.07;;;;;;;9.46;84.46;101426.81;5004558;28;20049;-68
2022/11/27 09:17:10;;;;;;;19.52;9.73;;;;;;;9.65;84.31;101430.47;5042970;28;20045;-66
2022/11/27 09:19:37;;;;;;;16.60;7.45;;;;;;;9.91;82.74;101438.19;5052354;28;20048;-66
2022/11/27 09:22:05;;;;;;;15.32;6.93;;;;;;;9.72;82.73;101436.47;5059232;28;20059;-71
2022/11/27 09:24:35;;;;;;;18.23;7.90;;;;;;;9.59;82.63;101434.41;5039938;28;20064;-66
2022/11/27 09:27:02;;;;;;;21.00;7.63;;;;;;;9.73;82.44;101441.66;5005238;28;20555;-68
2022/11/27 09:29:29;;;;;;;15.57;7.45;;;;;;;9.38;83.51;101427.44;5040661;28;20046;-70
2022/11/27 09:31:56;;;;;;;15.23;6.95;;;;;;;9.16;84.42;101421.56;5021642;28;20650;-69
2022/11/27 09:34:24;;;;;;;17.27;7.93;;;;;;;8.88;85.70;101432.22;5028173;28;20044;-76
2022/11/27 09:36:51;;;;;;;14.48;7.13;;;;;;;8.94;86.92;101416.53;5040114;28;20052;-72
2022/11/27 09:39:19;;;;;;;19.63;7.90;;;;;;;8.96;86.47;101409.63;5019327;28;20424;-81
2022/11/27 09:41:50;;;;;;;16.75;7.43;;;;;;;8.87;86.64;101400.34;5008241;28;20404;-73
2022/11/27 09:44:45;;;;;;;14.23;7.30;;;;;;;8.85;87.02;101380.59;5020712;28;20040;-78
2022/11/27 09:47:34;;;;;;;16.60;7.85;;;;;;;8.91;86.83;101376.69;5023808;28;20057;-77
2022/11/27 09:50:34;;;;;;;15.57;7.72;;;;;;;8.87;86.97;101361.88;5038821;28;20053;-75
2022/11/27 09:53:05;;;;;;;14.80;7.70;;;;;;;8.94;87.52;101362.38;5014589;28;20057;-79
2022/11/27 09:55:40;;;;;;;15.88;7.45;;;;;;;9.24;85.98;101363.25;5045882;28;20056;-70
2022/11/27 09:58:13;;;;;;;16.58;8.02;;;;;;;9.25;85.71;101373.94;5042450;28;20052;-66
2022/11/27 10:00:45;;;;;;;13.85;7.68;;;;;;;9.18;85.77;101378.13;5029924;28;20496;-64
2022/11/27 10:03:20;;;;;;;15.77;7.53;;;;;;;9.05;86.26;101377.69;5017553;28;20050;-67
2022/11/27 10:06:15;;;;;;;16.60;7.65;;;;;;;9.35;85.16;101378.50;5019608;28;20044;-77
2022/11/27 10:08:56;;;;;;;16.33;7.13;;;;;;;9.49;84.46;101387.72;5039523;28;20057;-68
2022/11/27 10:12:06;;;;;;;14.32;6.68;;;;;;;9.33;83.48;101395.31;5017213;28;20060;-68
2022/11/27 10:14:37;;;;;;;;;;;;;;;9.37;83.75;101399.13;5011862;28;20053;-66
2022/11/27 10:17:26;;;;;;;18.33;6.90;;;;;;;9.52;83.48;101389.91;5021347;28;19921;-70
2022/11/27 10:20:35;;;;;;;14.60;6.45;;;;;;;9.24;84.03;101393.47;5035826;28;20041;-68
2022/11/27 10:23:13;;;;;;;16.60;8.07;;;;;;;9.37;83.75;101384.53;5018052;28;20057;-68
2022/11/27 10:25:49;;;;;;;14.25;7.53;;;;;;;9.21;83.72;101377.53;5028635;28;20050;-67
2022/11/27 10:28:38;;;;;;;18.20;7.03;;;;;;;9.42;83.85;101384.50;5028092;28;20067;-67
2022/11/27 10:31:07;;;;;;;16.52;6.53;;;;;;;9.34;83.93;101365.88;5017498;28;20052;-68
2022/11/27 10:33:42;;;;;;;20.00;7.60;;;;;;;9.35;83.86;101351.84;5053346;28;20124;-69
2022/11/27 10:36:16;;;;;;;17.95;6.72;;;;;;;9.49;84.07;101361.06;5032788;28;20073;-71
2022/11/27 10:38:45;;;;;;;17.85;6.35;;;;;;;9.58;83.48;101370.31;5040168;28;20041;-72
2022/11/27 10:41:25;;;;;;;15.52;6.20;;;;;;;9.65;83.23;101354.28;5016107;28;20431;-76
2022/11/27 10:44:30;;;;;;;15.70;6.97;;;;;;;9.73;82.78;101352.81;5015137;28;20069;-68
2022/11/27 10:47:07;;;;;;;13.50;6.60;;;;;;;9.72;82.96;101351.19;5031594;28;20404;-72
2022/11/27 10:49:39;;;;;;;14.45;6.70;;;;;;;9.69;82.23;101346.28;5022713;28;20049;-70
2022/11/27 10:52:14;;;;;;;12.82;6.40;;;;;;;9.77;81.50;101337.38;5024088;28;20057;-70
2022/11/27 10:54:44;;;;;;;16.98;6.63;;;;;;;9.55;81.71;101346.16;5029392;28;20052;-71
2022/11/27 10:57:20;;;;;;;15.43;7.45;;;;;;;9.46;82.26;101342.41;5015921;28;20100;-70
2022/11/27 11:00:04;;;;;;;15.50;6.95;;;;;;;9.53;82.61;101342.88;5026842;28;20060;-68
2022/11/27 11:02:33;;;;;;;13.38;6.65;;;;;;;9.62;82.56;101345.81;5024306;28;20045;-68
2022/11/27 11:05:10;;;;;;;15.40;7.10;;;;;;;9.82;82.35;101334.56;5011017;28;20064;-67
2022/11/27 11:08:18;;;;;;;16.98;7.13;;;;;;;9.82;82.04;101338.13;5039317;28;20053;-67
2022/11/27 11:10:52;;;;;;;17.08;6.82;;;;;;;9.84;81.62;101333.16;5014025;28;20048;-69
2022/11/27 11:13:20;;;;;;;14.20;6.65;;;;;;;9.94;81.25;101333.03;5032090;28;20049;-67
2022/11/27 11:15:54;;;;;;;14.07;6.85;;;;;;;9.87;81.21;101324.31;5047339;28;20068;-67
2022/11/27 11:18:33;;;;;;;19.65;7.53;;;;;;;9.89;81.82;101316.59;5045881;28;20120;-69
2022/11/27 11:21:04;;;;;;;17.88;7.40;;;;;;;10.06;81.44;101307.81;5027233;28;20044;-67
2022/11/27 11:23:36;;;;;;;17.98;6.97;;;;;;;10.10;80.22;101295.97;5013596;28;20056;-68
2022/11/27 11:26:25;;;;;;;11.82;6.70;;;;;;;10.04;80.62;101297.13;5025299;28;20053;-70
2022/11/27 11:28:54;;;;;;;14.20;7.55;;;;;;;10.12;80.69;101281.91;5047663;28;20049;-69
2022/11/27 11:31:30;;;;;;;16.40;7.13;;;;;;;9.96;80.29;101283.19;5002036;28;20049;-69
2022/11/27 11:34:00;;;;;;;16.30;7.85;;;;;;;9.95;80.37;101282.41;5051350;28;20076;-69
2022/11/27 11:36:27;;;;;;;17.37;7.03;;;;;;;9.90;79.98;101279.69;5037173;28;20053;-69
2022/11/27 11:38:55;;;;;;;15.27;7.28;;;;;;;10.00;80.00;101271.31;5022224;28;20504;-68
2022/11/27 11:41:36;;;;;;;15.45;6.80;;;;;;;10.15;79.86;101270.31;5050593;28;20049;-69
2022/11/27 11:44:03;;;;;;;12.25;6.78;;;;;;;10.14;79.85;101263.19;5046187;28;20052;-67
2022/11/27 11:46:32;;;;;;;14.68;7.28;;;;;;;10.16;79.36;101264.50;5049749;28;20496;-67
2022/11/27 11:49:25;;;;;;;18.73;6.97;;;;;;;10.10;78.74;101259.38;5033131;28;20045;-68